createdAt,value
2017-07-11T00:01:17.820Z,8
2017-07-11T00:02:17.753Z,8
2017-07-11T00:03:17.697Z,8
2017-07-11T00:04:17.631Z,8
2017-07-11T00:05:17.262Z,8
2017-07-11T00:06:17.206Z,8
2017-07-11T00:07:17.439Z,8
2017-07-11T00:08:17.069Z,8
2017-07-11T00:09:16.695Z,8
2017-07-11T00:10:16.944Z,8
2017-07-11T00:11:16.891Z,8
2017-07-11T00:12:16.823Z,8
2017-07-11T00:13:17.078Z,8
2017-07-11T00:14:16.389Z,8
2017-07-11T00:15:16.955Z,8
2017-07-11T00:16:17.035Z,8
2017-07-11T00:17:16.203Z,8
2017-07-11T00:18:16.140Z,8
2017-07-11T00:19:16.400Z,8
2017-07-11T00:20:16.637Z,8
2017-07-11T00:21:16.571Z,8
2017-07-11T00:22:16.197Z,8
2017-07-11T00:23:16.447Z,8
2017-07-11T00:24:16.384Z,8
2017-07-11T00:25:16.016Z,8
2017-07-11T00:26:16.272Z,8
2017-07-11T00:27:15.896Z,8
2017-07-11T00:28:16.136Z,8
2017-07-11T00:29:16.077Z,8
2017-07-11T00:30:16.172Z,8
2017-07-11T00:31:15.649Z,8
2017-07-11T00:32:15.581Z,8
2017-07-11T00:33:15.829Z,8
2017-07-11T00:34:15.459Z,8
2017-07-11T00:35:15.806Z,8
2017-07-11T00:36:15.337Z,8
2017-07-11T00:37:15.578Z,8
2017-07-11T00:38:15.213Z,8
2017-07-11T00:39:15.453Z,8
2017-07-11T00:40:15.084Z,8
2017-07-11T00:41:16.535Z,8
2017-07-11T00:42:15.271Z,8
2017-07-11T00:43:14.591Z,8
2017-07-11T00:44:15.147Z,8
2017-07-11T00:45:14.780Z,8
2017-07-11T00:46:14.407Z,8
2017-07-11T00:47:14.961Z,8
2017-07-11T00:48:14.903Z,8
2017-07-11T00:49:14.834Z,8
2017-07-11T00:50:14.465Z,8
2017-07-11T00:51:14.404Z,8
2017-07-11T00:52:14.649Z,8
2017-07-11T00:53:14.586Z,8
2017-07-11T00:54:14.536Z,8
2017-07-11T00:55:14.156Z,8
2017-07-11T00:56:14.403Z,8
2017-07-11T00:57:14.342Z,8
2017-07-11T00:58:13.978Z,8
2017-07-11T00:59:13.605Z,8
2017-07-11T01:00:14.169Z,8
2017-07-11T01:01:13.781Z,8
2017-07-11T01:02:13.719Z,8
2017-07-11T01:03:13.658Z,8
2017-07-11T01:04:13.909Z,8
2017-07-11T01:05:13.544Z,8
2017-07-11T01:06:13.787Z,8
2017-07-11T01:07:13.723Z,8
2017-07-11T01:08:13.350Z,8
2017-07-11T01:09:13.596Z,8
2017-07-11T01:10:13.230Z,8
2017-07-11T01:11:13.475Z,8
2017-07-11T01:12:12.793Z,8
2017-07-11T01:13:13.347Z,8
2017-07-11T01:14:12.979Z,8
2017-07-11T01:15:13.325Z,8
2017-07-11T01:16:12.850Z,8
2017-07-11T01:17:13.099Z,8
2017-07-11T01:18:13.043Z,8
2017-07-11T01:19:12.979Z,8
2017-07-11T01:20:12.857Z,8
2017-07-11T01:21:12.847Z,8
2017-07-11T01:22:12.481Z,8
2017-07-11T01:23:12.417Z,8
2017-07-11T01:24:12.356Z,4
2017-07-11T01:25:12.295Z,8
2017-07-11T01:26:12.553Z,8
2017-07-11T01:27:12.173Z,12
2017-07-11T01:28:12.118Z,12
2017-07-11T01:29:12.047Z,12
2017-07-11T01:30:12.296Z,8
2017-07-11T01:31:12.234Z,8
2017-07-11T01:32:12.166Z,8
2017-07-11T01:33:11.804Z,8
2017-07-11T01:34:11.736Z,8
2017-07-11T01:35:11.984Z,8
2017-07-11T01:36:11.613Z,8
2017-07-11T01:37:11.558Z,8
2017-07-11T01:38:11.798Z,92
2017-07-11T01:39:11.745Z,144
2017-07-11T01:40:11.060Z,160
2017-07-11T01:41:11.630Z,168
2017-07-11T01:42:11.550Z,164
2017-07-11T01:43:11.489Z,8
2017-07-11T01:44:10.815Z,8
2017-07-11T01:45:11.365Z,8
2017-07-11T01:46:11.326Z,8
2017-07-11T01:47:11.243Z,8
2017-07-11T01:48:11.177Z,8
2017-07-11T01:49:11.180Z,8
2017-07-11T01:50:10.439Z,8
2017-07-11T01:51:10.685Z,8
2017-07-11T01:52:10.625Z,8
2017-07-11T01:53:10.869Z,8
2017-07-11T01:54:10.189Z,8
2017-07-11T01:55:10.440Z,8
2017-07-11T01:56:10.689Z,8
2017-07-11T01:57:10.316Z,8
2017-07-11T01:58:10.562Z,8
2017-07-11T01:59:10.192Z,8
2017-07-11T02:00:10.126Z,8
2017-07-11T02:01:10.372Z,8
2017-07-11T02:02:10.312Z,8
2017-07-11T02:03:10.251Z,8
2017-07-11T02:04:09.882Z,8
2017-07-11T02:05:09.824Z,8
2017-07-11T02:06:10.064Z,8
2017-07-11T02:07:09.690Z,8
2017-07-11T02:08:09.965Z,8
2017-07-11T02:09:09.575Z,8
2017-07-11T02:10:09.519Z,8
2017-07-11T02:11:09.754Z,8
2017-07-11T02:12:09.076Z,8
2017-07-11T02:13:09.637Z,8
2017-07-11T02:14:09.262Z,8
2017-07-11T02:15:09.199Z,8
2017-07-11T02:16:09.451Z,8
2017-07-11T02:17:09.382Z,8
2017-07-11T02:18:09.323Z,8
2017-07-11T02:19:08.948Z,8
2017-07-11T02:20:09.195Z,8
2017-07-11T02:21:09.139Z,8
2017-07-11T02:22:08.455Z,8
2017-07-11T02:23:08.701Z,8
2017-07-11T02:24:08.639Z,8
2017-07-11T02:25:08.681Z,8
2017-07-11T02:26:08.826Z,8
2017-07-11T02:27:08.454Z,8
2017-07-11T02:28:08.703Z,8
2017-07-11T02:29:08.644Z,8
2017-07-11T02:30:08.269Z,8
2017-07-11T02:31:08.513Z,8
2017-07-11T02:32:07.839Z,8
2017-07-11T02:33:08.389Z,4
2017-07-11T02:34:08.329Z,4
2017-07-11T02:35:08.518Z,4
2017-07-11T02:36:07.588Z,4
2017-07-11T02:37:07.594Z,4
2017-07-11T02:38:08.083Z,4
2017-07-11T02:39:07.710Z,4
2017-07-11T02:40:07.650Z,4
2017-07-11T02:41:07.898Z,4
2017-07-11T02:42:07.843Z,4
2017-07-11T02:43:07.467Z,4
2017-07-11T02:44:07.402Z,4
2017-07-11T02:45:07.343Z,4
2017-07-11T02:46:07.274Z,4
2017-07-11T02:47:07.214Z,4
2017-07-11T02:48:06.846Z,4
2017-07-11T02:49:07.091Z,4
2017-07-11T02:50:07.030Z,4
2017-07-11T02:51:06.669Z,4
2017-07-11T02:52:07.222Z,4
2017-07-11T02:53:07.157Z,4
2017-07-11T02:54:06.798Z,4
2017-07-11T02:55:07.030Z,4
2017-07-11T02:56:06.970Z,4
2017-07-11T02:57:06.604Z,4
2017-07-11T02:58:06.852Z,4
2017-07-11T02:59:06.784Z,4
2017-07-11T03:00:06.408Z,4
2017-07-11T03:01:06.347Z,4
2017-07-11T03:02:06.293Z,4
2017-07-11T03:03:06.227Z,4
2017-07-11T03:04:06.474Z,4
2017-07-11T03:05:06.409Z,4
2017-07-11T03:06:06.350Z,4
2017-07-11T03:07:05.979Z,4
2017-07-11T03:08:06.225Z,4
2017-07-11T03:09:05.860Z,8
2017-07-11T03:10:06.121Z,8
2017-07-11T03:11:06.049Z,8
2017-07-11T03:12:05.987Z,8
2017-07-11T03:13:05.917Z,8
2017-07-11T03:14:05.856Z,8
2017-07-11T03:15:05.425Z,8
2017-07-11T03:16:05.748Z,8
2017-07-11T03:17:05.403Z,8
2017-07-11T03:18:05.302Z,8
2017-07-11T03:19:05.245Z,8
2017-07-11T03:20:05.493Z,8
2017-07-11T03:21:05.111Z,8
2017-07-11T03:22:05.048Z,8
2017-07-11T03:23:04.985Z,8
2017-07-11T03:24:04.924Z,4
2017-07-11T03:25:04.805Z,8
2017-07-11T03:26:04.505Z,8
2017-07-11T03:27:04.741Z,8
2017-07-11T03:28:04.675Z,8
2017-07-11T03:29:04.623Z,8
2017-07-11T03:30:05.117Z,8
2017-07-11T03:31:04.527Z,8
2017-07-11T03:32:04.740Z,8
2017-07-11T03:33:04.365Z,8
2017-07-11T03:34:04.308Z,8
2017-07-11T03:35:04.243Z,8
2017-07-11T03:36:04.494Z,8
2017-07-11T03:37:04.118Z,12
2017-07-11T03:38:04.368Z,12
2017-07-11T03:39:04.311Z,12
2017-07-11T03:40:03.935Z,12
2017-07-11T03:41:04.194Z,12
2017-07-11T03:42:03.810Z,12
2017-07-11T03:43:04.052Z,8
2017-07-11T03:44:04.000Z,8
2017-07-11T03:45:04.107Z,12
2017-07-11T03:46:03.869Z,8
2017-07-11T03:47:03.823Z,12
2017-07-11T03:48:03.439Z,12
2017-07-11T03:49:03.687Z,12
2017-07-11T03:50:03.314Z,12
2017-07-11T03:51:03.560Z,12
2017-07-11T03:52:03.501Z,12
2017-07-11T03:53:03.442Z,12
2017-07-11T03:54:03.373Z,12
2017-07-11T03:55:03.311Z,16
2017-07-11T03:56:02.943Z,16
2017-07-11T03:57:03.199Z,12
2017-07-11T03:58:03.124Z,12
2017-07-11T03:59:02.768Z,12
2017-07-11T04:01:02.943Z,12
2017-07-11T04:02:02.881Z,12
2017-07-11T04:03:02.514Z,12
2017-07-11T04:04:02.448Z,12
2017-07-11T04:05:02.694Z,12
2017-07-11T04:06:02.631Z,12
2017-07-11T04:07:02.569Z,12
2017-07-11T04:08:02.508Z,12
2017-07-11T04:09:02.140Z,16
2017-07-11T04:10:02.380Z,16
2017-07-11T04:11:02.320Z,16
2017-07-11T04:12:02.263Z,16
2017-07-11T04:13:01.578Z,16
2017-07-11T04:14:02.138Z,20
2017-07-11T04:15:02.071Z,20
2017-07-11T04:16:02.018Z,16
2017-07-11T04:17:01.951Z,16
2017-07-11T04:18:01.581Z,20
2017-07-11T04:19:01.518Z,20
2017-07-11T04:20:02.018Z,20
2017-07-11T04:21:01.703Z,20
2017-07-11T04:22:01.645Z,20
2017-07-11T04:23:01.579Z,20
2017-07-11T04:24:01.204Z,20
2017-07-11T04:25:01.673Z,20
2017-07-11T04:26:01.090Z,20
2017-07-11T04:27:01.329Z,20
2017-07-11T04:28:01.269Z,20
2017-07-11T04:29:01.239Z,20
2017-07-11T04:30:00.832Z,20
2017-07-11T04:31:01.083Z,24
2017-07-11T04:32:01.016Z,20
2017-07-11T04:33:00.958Z,20
2017-07-11T04:34:00.582Z,20
2017-07-11T04:35:00.831Z,20
2017-07-11T04:36:00.486Z,24
2017-07-11T04:37:00.397Z,20
2017-07-11T04:38:00.653Z,20
2017-07-11T04:39:00.583Z,20
2017-07-11T04:40:00.211Z,24
2017-07-11T04:41:00.453Z,24
2017-07-11T04:42:00.092Z,24
2017-07-11T04:43:00.025Z,28
2017-07-11T04:44:00.276Z,28
2017-07-11T04:44:59.911Z,32
2017-07-11T04:46:00.202Z,24
2017-07-11T04:47:00.085Z,28
2017-07-11T04:47:59.738Z,24
2017-07-11T04:48:59.965Z,28
2017-07-11T04:49:59.594Z,32
2017-07-11T04:50:59.842Z,32
2017-07-11T04:51:59.784Z,32
2017-07-11T04:52:59.408Z,28
2017-07-11T04:53:59.647Z,28
2017-07-11T04:54:59.589Z,28
2017-07-11T04:55:59.527Z,28
2017-07-11T04:56:59.462Z,28
2017-07-11T04:57:59.436Z,28
2017-07-11T04:58:59.348Z,28
2017-07-11T04:59:59.283Z,24
2017-07-11T05:00:59.062Z,28
2017-07-11T05:01:59.152Z,28
2017-07-11T05:02:59.098Z,28
2017-07-11T05:03:59.036Z,28
2017-07-11T05:04:58.658Z,32
2017-07-11T05:05:58.623Z,28
2017-07-11T05:06:58.532Z,32
2017-07-11T05:07:58.470Z,32
2017-07-11T05:08:58.714Z,32
2017-07-11T05:09:58.375Z,32
2017-07-11T05:10:58.288Z,40
2017-07-11T05:11:58.531Z,36
2017-07-11T05:12:58.464Z,36
2017-07-11T05:13:58.408Z,36
2017-07-11T05:14:58.349Z,32
2017-07-11T05:15:58.282Z,32
2017-07-11T05:16:57.928Z,36
2017-07-11T05:17:58.157Z,36
2017-07-11T05:18:58.096Z,32
2017-07-11T05:19:57.727Z,32
2017-07-11T05:20:57.970Z,32
2017-07-11T05:21:57.597Z,36
2017-07-11T05:22:57.300Z,36
2017-07-11T05:23:57.474Z,36
2017-07-11T05:24:57.718Z,40
2017-07-11T05:25:57.657Z,40
2017-07-11T05:26:57.597Z,36
2017-07-11T05:27:57.222Z,36
2017-07-11T05:28:57.161Z,36
2017-07-11T05:29:57.411Z,36
2017-07-11T05:30:57.346Z,36
2017-07-11T05:31:57.281Z,36
2017-07-11T05:32:57.214Z,40
2017-07-11T05:33:57.160Z,44
2017-07-11T05:34:56.479Z,44
2017-07-11T05:35:57.036Z,48
2017-07-11T05:36:56.989Z,48
2017-07-11T05:37:56.907Z,52
2017-07-11T05:38:56.539Z,52
2017-07-11T05:39:56.502Z,60
2017-07-11T05:40:56.722Z,52
2017-07-11T05:41:56.351Z,52
2017-07-11T05:42:55.976Z,52
2017-07-11T05:43:56.536Z,56
2017-07-11T05:44:56.470Z,52
2017-07-11T05:45:56.404Z,52
2017-07-11T05:46:56.345Z,52
2017-07-11T05:47:56.287Z,52
2017-07-11T05:48:55.601Z,48
2017-07-11T05:49:56.161Z,52
2017-07-11T05:50:56.098Z,56
2017-07-11T05:51:55.735Z,60
2017-07-11T05:52:55.978Z,56
2017-07-11T05:53:55.630Z,56
2017-07-11T05:54:55.856Z,56
2017-07-11T05:55:55.800Z,60
2017-07-11T05:56:55.718Z,56
2017-07-11T05:57:55.351Z,60
2017-07-11T05:58:55.304Z,84
2017-07-11T05:59:55.538Z,76
2017-07-11T06:00:55.481Z,72
2017-07-11T06:01:55.419Z,76
2017-07-11T06:02:55.348Z,72
2017-07-11T06:03:54.980Z,72
2017-07-11T06:04:54.609Z,68
2017-07-11T06:05:54.857Z,68
2017-07-11T06:06:55.094Z,72
2017-07-11T06:07:54.722Z,64
2017-07-11T06:08:54.665Z,64
2017-07-11T06:09:54.604Z,80
2017-07-11T06:10:54.570Z,76
2017-07-11T06:11:54.785Z,76
2017-07-11T06:12:54.406Z,76
2017-07-11T06:13:54.361Z,72
2017-07-11T06:14:54.291Z,60
2017-07-11T06:15:54.553Z,60
2017-07-11T06:16:53.853Z,56
2017-07-11T06:17:54.102Z,52
2017-07-11T06:18:54.353Z,56
2017-07-11T06:19:54.283Z,60
2017-07-11T06:20:54.221Z,56
2017-07-11T06:21:54.159Z,64
2017-07-11T06:22:53.784Z,68
2017-07-11T06:23:53.416Z,68
2017-07-11T06:24:53.663Z,80
2017-07-11T06:25:53.604Z,92
2017-07-11T06:26:53.853Z,96
2017-07-11T06:27:53.790Z,84
2017-07-11T06:28:53.493Z,80
2017-07-11T06:29:53.356Z,76
2017-07-11T06:30:53.594Z,80
2017-07-11T06:31:53.534Z,84
2017-07-11T06:32:53.475Z,92
2017-07-11T06:33:52.790Z,96
2017-07-11T06:34:53.343Z,100
2017-07-11T06:35:53.277Z,96
2017-07-11T06:36:53.227Z,100
2017-07-11T06:37:52.858Z,96
2017-07-11T06:38:53.100Z,100
2017-07-11T06:39:53.029Z,100
2017-07-11T06:40:53.617Z,100
2017-07-11T06:41:52.289Z,100
2017-07-11T06:42:52.531Z,80
2017-07-11T06:43:52.162Z,76
2017-07-11T06:44:52.720Z,88
2017-07-11T06:45:52.345Z,92
2017-07-11T06:46:52.604Z,104
2017-07-11T06:47:52.221Z,96
2017-07-11T06:48:52.470Z,108
2017-07-11T06:49:53.053Z,108
2017-07-11T06:50:52.042Z,108
2017-07-11T06:51:51.976Z,104
2017-07-11T06:52:52.218Z,104
2017-07-11T06:53:52.157Z,108
2017-07-11T06:54:52.093Z,96
2017-07-11T06:55:52.053Z,92
2017-07-11T06:56:52.033Z,104
2017-07-11T06:57:51.904Z,104
2017-07-11T06:58:51.554Z,108
2017-07-11T06:59:51.799Z,112
2017-07-11T07:00:51.730Z,112
2017-07-11T07:01:51.670Z,112
2017-07-11T07:02:51.592Z,116
2017-07-11T07:03:51.218Z,116
2017-07-11T07:04:51.162Z,120
2017-07-11T07:05:51.098Z,116
2017-07-11T07:06:51.343Z,124
2017-07-11T07:07:51.003Z,124
2017-07-11T07:08:50.918Z,120
2017-07-11T07:09:51.154Z,124
2017-07-11T07:10:50.166Z,132
2017-07-11T07:11:50.726Z,136
2017-07-11T07:12:50.657Z,120
2017-07-11T07:13:50.901Z,136
2017-07-11T07:14:50.841Z,104
2017-07-11T07:15:50.158Z,116
2017-07-11T07:16:50.408Z,132
2017-07-11T07:17:50.654Z,88
2017-07-11T07:18:50.589Z,120
2017-07-11T07:19:50.527Z,152
2017-07-11T07:20:50.619Z,152
2017-07-11T07:21:50.404Z,84
2017-07-11T07:22:50.345Z,108
2017-07-11T07:23:49.969Z,168
2017-07-11T07:24:50.218Z,216
2017-07-11T07:25:49.994Z,208
2017-07-11T07:26:49.467Z,204
2017-07-11T07:27:49.715Z,184
2017-07-11T07:28:49.658Z,200
2017-07-11T07:29:49.919Z,192
2017-07-11T07:30:49.857Z,208
2017-07-11T07:31:49.806Z,204
2017-07-11T07:32:49.713Z,156
2017-07-11T07:33:49.334Z,176
2017-07-11T07:34:49.580Z,188
2017-07-11T07:35:48.904Z,200
2017-07-11T07:36:49.457Z,208
2017-07-11T07:37:49.086Z,208
2017-07-11T07:38:48.718Z,208
2017-07-11T07:39:48.966Z,204
2017-07-11T07:40:49.212Z,200
2017-07-11T07:41:49.149Z,192
2017-07-11T07:42:48.776Z,192
2017-07-11T07:43:49.023Z,196
2017-07-11T07:44:48.653Z,192
2017-07-11T07:45:48.591Z,200
2017-07-11T07:46:48.837Z,160
2017-07-11T07:47:48.464Z,192
2017-07-11T07:48:48.400Z,184
2017-07-11T07:49:48.648Z,176
2017-07-11T07:50:48.583Z,176
2017-07-11T07:51:48.523Z,176
2017-07-11T07:52:48.463Z,164
2017-07-11T07:53:48.092Z,168
2017-07-11T07:54:48.032Z,160
2017-07-11T07:55:47.964Z,148
2017-07-11T07:56:48.214Z,156
2017-07-11T07:57:47.840Z,140
2017-07-11T07:58:48.082Z,140
2017-07-11T07:59:48.022Z,140
2017-07-11T08:00:47.967Z,144
2017-07-11T08:01:47.940Z,144
2017-07-11T08:02:47.839Z,148
2017-07-11T08:03:47.155Z,160
2017-07-11T08:04:47.713Z,156
2017-07-11T08:05:47.748Z,152
2017-07-11T08:06:47.313Z,160
2017-07-11T08:07:47.517Z,160
2017-07-11T08:08:47.462Z,160
2017-07-11T08:09:47.090Z,156
2017-07-11T08:10:47.489Z,152
2017-07-11T08:11:46.967Z,152
2017-07-11T08:12:47.210Z,144
2017-07-11T08:13:47.145Z,140
2017-07-11T08:14:47.096Z,140
2017-07-11T08:15:46.559Z,132
2017-07-11T08:16:46.655Z,120
2017-07-11T08:17:46.317Z,124
2017-07-11T08:18:46.854Z,124
2017-07-11T08:19:46.469Z,108
2017-07-11T08:20:46.401Z,84
2017-07-11T08:21:46.343Z,92
2017-07-11T08:22:45.968Z,96
2017-07-11T08:23:46.266Z,116
2017-07-11T08:24:46.154Z,120
2017-07-11T08:25:46.405Z,116
2017-07-11T08:26:46.026Z,116
2017-07-11T08:27:45.970Z,120
2017-07-11T08:28:45.905Z,124
2017-07-11T08:29:45.850Z,120
2017-07-11T08:30:45.785Z,128
2017-07-11T08:31:45.718Z,140
2017-07-11T08:32:45.971Z,144
2017-07-11T08:33:45.917Z,152
2017-07-11T08:34:45.848Z,148
2017-07-11T08:35:45.776Z,148
2017-07-11T08:36:45.732Z,136
2017-07-11T08:37:45.655Z,136
2017-07-11T08:38:45.590Z,144
2017-07-11T08:39:45.534Z,100
2017-07-11T08:40:45.479Z,132
2017-07-11T08:41:45.112Z,136
2017-07-11T08:42:45.036Z,124
2017-07-11T08:43:45.288Z,140
2017-07-11T08:44:44.603Z,136
2017-07-11T08:45:45.159Z,144
2017-07-11T08:46:45.093Z,140
2017-07-11T08:47:44.728Z,140
2017-07-11T08:48:44.981Z,124
2017-07-11T08:49:44.946Z,152
2017-07-11T08:50:44.863Z,148
2017-07-11T08:51:44.477Z,148
2017-07-11T08:52:44.736Z,144
2017-07-11T08:53:44.660Z,152
2017-07-11T08:54:44.290Z,144
2017-07-11T08:55:44.340Z,144
2017-07-11T08:56:44.474Z,148
2017-07-11T08:57:44.436Z,144
2017-07-11T08:58:44.375Z,156
2017-07-11T08:59:44.310Z,144
2017-07-11T09:00:44.379Z,156
2017-07-11T09:01:43.861Z,164
2017-07-11T09:02:43.489Z,156
2017-07-11T09:03:43.778Z,144
2017-07-11T09:04:44.048Z,164
2017-07-11T09:05:44.102Z,156
2017-07-11T09:06:43.552Z,156
2017-07-11T09:07:43.484Z,156
2017-07-11T09:08:43.738Z,164
2017-07-11T09:09:43.680Z,168
2017-07-11T09:10:43.705Z,172
2017-07-11T09:11:43.245Z,168
2017-07-11T09:12:43.170Z,164
2017-07-11T09:13:42.801Z,160
2017-07-11T09:14:43.416Z,160
2017-07-11T09:15:43.307Z,156
2017-07-11T09:16:43.235Z,144
2017-07-11T09:17:43.173Z,140
2017-07-11T09:18:43.112Z,140
2017-07-11T09:19:42.738Z,112
2017-07-11T09:20:42.985Z,132
2017-07-11T09:21:42.948Z,132
2017-07-11T09:22:42.973Z,140
2017-07-11T09:23:42.865Z,128
2017-07-11T09:24:42.436Z,148
2017-07-11T09:25:42.065Z,152
2017-07-11T09:26:42.630Z,148
2017-07-11T09:27:42.867Z,152
2017-07-11T09:28:42.208Z,124
2017-07-11T09:29:42.469Z,68
2017-07-11T09:30:42.457Z,72
2017-07-11T09:31:42.378Z,72
2017-07-11T09:32:42.282Z,68
2017-07-11T09:33:42.239Z,64
2017-07-11T09:34:41.901Z,60
2017-07-11T09:35:41.863Z,64
2017-07-11T09:36:41.416Z,64
2017-07-11T09:37:41.931Z,60
2017-07-11T09:38:41.873Z,60
2017-07-11T09:39:41.830Z,0
2017-07-11T09:40:41.752Z,0
2017-07-11T09:41:41.065Z,0
2017-07-11T09:42:41.701Z,0
2017-07-11T09:43:41.559Z,0
2017-07-11T09:44:41.189Z,12
2017-07-11T09:45:41.594Z,8
2017-07-11T09:46:40.753Z,8
2017-07-11T09:47:41.309Z,4
2017-07-11T09:48:40.964Z,4
2017-07-11T09:49:40.884Z,4
2017-07-11T09:50:41.121Z,4
2017-07-11T09:51:40.137Z,4
2017-07-11T09:52:40.695Z,4
2017-07-11T09:53:40.642Z,8
2017-07-11T09:54:40.566Z,4
2017-07-11T09:55:40.814Z,16
2017-07-11T09:56:40.451Z,20
2017-07-11T09:57:40.387Z,12
2017-07-11T09:58:40.633Z,12
2017-07-11T09:59:40.573Z,24
2017-07-11T10:00:39.893Z,28
2017-07-11T10:01:40.464Z,108
2017-07-11T10:02:40.390Z,104
2017-07-11T10:03:40.013Z,64
2017-07-11T10:04:40.318Z,60
2017-07-11T10:05:39.893Z,52
2017-07-11T10:06:39.863Z,4
2017-07-11T10:07:39.777Z,0
2017-07-11T10:08:40.025Z,0
2017-07-11T10:09:39.958Z,0
2017-07-11T10:10:39.891Z,0
2017-07-11T10:11:39.524Z,0
2017-07-11T10:12:39.771Z,0
2017-07-11T10:13:39.468Z,0
2017-07-11T10:14:39.340Z,0
2017-07-11T10:15:39.225Z,0
2017-07-11T10:16:39.530Z,0
2017-07-11T10:17:39.153Z,0
2017-07-11T10:18:39.104Z,0
2017-07-11T10:19:39.042Z,0
2017-07-11T10:20:39.286Z,0
2017-07-11T10:21:39.233Z,0
2017-07-11T10:22:38.542Z,124
2017-07-11T10:23:39.105Z,136
2017-07-11T10:24:39.042Z,140
2017-07-11T10:25:38.364Z,140
2017-07-11T10:26:38.310Z,140
2017-07-11T10:27:38.859Z,144
2017-07-11T10:28:38.493Z,148
2017-07-11T10:29:38.755Z,144
2017-07-11T10:30:38.117Z,120
2017-07-11T10:31:38.622Z,76
2017-07-11T10:32:37.939Z,72
2017-07-11T10:33:38.190Z,88
2017-07-11T10:34:38.434Z,136
2017-07-11T10:35:38.314Z,156
2017-07-11T10:36:38.015Z,152
2017-07-11T10:37:38.274Z,152
2017-07-11T10:38:37.890Z,152
2017-07-11T10:39:37.843Z,124
2017-07-11T10:40:38.166Z,116
2017-07-11T10:41:38.008Z,120
2017-07-11T10:42:37.634Z,140
2017-07-11T10:43:37.583Z,140
2017-07-11T10:44:37.526Z,128
2017-07-11T10:45:37.799Z,136
2017-07-11T10:46:37.703Z,144
2017-07-11T10:47:37.336Z,144
2017-07-11T10:48:37.583Z,92
2017-07-11T10:49:37.519Z,64
2017-07-11T10:50:37.554Z,76
2017-07-11T10:51:37.395Z,148
2017-07-11T10:52:37.337Z,148
2017-07-11T10:53:36.663Z,152
2017-07-11T10:54:36.900Z,152
2017-07-11T10:55:37.399Z,64
2017-07-11T10:56:36.475Z,76
2017-07-11T10:57:37.037Z,144
2017-07-11T10:58:36.980Z,108
2017-07-11T10:59:36.909Z,136
2017-07-11T11:00:36.957Z,136
2017-07-11T11:01:36.494Z,116
2017-07-11T11:02:36.411Z,116
2017-07-11T11:03:35.733Z,116
2017-07-11T11:04:36.618Z,124
2017-07-11T11:05:36.555Z,68
2017-07-11T11:06:36.164Z,112
2017-07-11T11:07:36.390Z,120
2017-07-11T11:08:35.753Z,108
2017-07-11T11:09:36.288Z,88
2017-07-11T11:10:36.407Z,68
2017-07-11T11:11:35.861Z,48
2017-07-11T11:12:35.745Z,44
2017-07-11T11:13:35.428Z,40
2017-07-11T11:14:35.676Z,52
2017-07-11T11:15:35.921Z,112
2017-07-11T11:16:35.858Z,124
2017-07-11T11:17:35.647Z,124
2017-07-11T11:18:35.741Z,120
2017-07-11T11:19:35.370Z,104
2017-07-11T11:20:35.310Z,64
2017-07-11T11:21:35.584Z,56
2017-07-11T11:22:35.127Z,48
2017-07-11T11:23:35.125Z,44
2017-07-11T11:24:35.059Z,52
2017-07-11T11:25:35.308Z,52
2017-07-11T11:26:35.274Z,64
2017-07-11T11:27:34.898Z,68
2017-07-11T11:28:34.842Z,108
2017-07-11T11:29:34.758Z,84
2017-07-11T11:30:35.104Z,64
2017-07-11T11:31:34.947Z,80
2017-07-11T11:32:34.879Z,108
2017-07-11T11:33:34.835Z,104
2017-07-11T11:34:34.760Z,104
2017-07-11T11:35:34.389Z,104
2017-07-11T11:36:34.023Z,100
2017-07-11T11:37:34.578Z,92
2017-07-11T11:38:34.523Z,88
2017-07-11T11:39:33.840Z,88
2017-07-11T11:40:33.775Z,88
2017-07-11T11:41:34.331Z,48
2017-07-11T11:42:34.269Z,44
2017-07-11T11:43:34.200Z,72
2017-07-11T11:44:34.145Z,100
2017-07-11T11:45:33.777Z,56
2017-07-11T11:46:34.026Z,48
2017-07-11T11:47:33.657Z,104
2017-07-11T11:48:33.591Z,104
2017-07-11T11:49:33.531Z,60
2017-07-11T11:50:33.159Z,60
2017-07-11T11:51:33.710Z,72
2017-07-11T11:52:33.035Z,44
2017-07-11T11:53:33.282Z,56
2017-07-11T11:54:33.222Z,56
2017-07-11T11:55:33.471Z,64
2017-07-11T11:56:33.096Z,104
2017-07-11T11:57:33.274Z,100
2017-07-11T11:58:32.973Z,112
2017-07-11T11:59:33.263Z,68
2017-07-11T12:00:32.905Z,48
2017-07-11T12:01:32.485Z,104
2017-07-11T12:02:33.035Z,104
2017-07-11T12:03:32.973Z,96
2017-07-11T12:04:32.607Z,48
2017-07-11T12:05:32.244Z,52
2017-07-11T12:06:32.798Z,100
2017-07-11T12:07:32.436Z,92
2017-07-11T12:08:32.367Z,104
2017-07-11T12:09:32.603Z,100
2017-07-11T12:10:32.232Z,100
2017-07-11T12:11:32.182Z,100
2017-07-11T12:12:31.804Z,104
2017-07-11T12:13:32.064Z,100
2017-07-11T12:14:31.985Z,104
2017-07-11T12:15:32.239Z,60
2017-07-11T12:16:31.866Z,48
2017-07-11T12:17:31.807Z,44
2017-07-11T12:18:32.074Z,48
2017-07-11T12:19:31.684Z,108
2017-07-11T12:20:31.932Z,48
2017-07-11T12:21:31.865Z,48
2017-07-11T12:22:31.185Z,80
2017-07-11T12:23:31.128Z,104
2017-07-11T12:24:31.378Z,108
2017-07-11T12:25:31.309Z,108
2017-07-11T12:26:31.253Z,104
2017-07-11T12:27:31.509Z,104
2017-07-11T12:28:31.439Z,104
2017-07-11T12:29:31.379Z,100
2017-07-11T12:30:30.700Z,76
2017-07-11T12:31:31.248Z,100
2017-07-11T12:32:31.189Z,100
2017-07-11T12:33:31.134Z,76
2017-07-11T12:34:31.064Z,108
2017-07-11T12:35:30.392Z,92
2017-07-11T12:36:30.633Z,120
2017-07-11T12:37:30.889Z,56
2017-07-11T12:38:30.825Z,108
2017-07-11T12:39:30.763Z,108
2017-07-11T12:40:30.705Z,112
2017-07-11T12:41:30.640Z,108
2017-07-11T12:42:30.572Z,108
2017-07-11T12:43:30.518Z,108
2017-07-11T12:44:30.462Z,116
2017-07-11T12:45:30.386Z,116
2017-07-11T12:46:30.343Z,116
2017-07-11T12:47:30.270Z,112
2017-07-11T12:48:30.212Z,112
2017-07-11T12:49:29.838Z,108
2017-07-11T12:50:29.769Z,112
2017-07-11T12:51:30.024Z,108
2017-07-11T12:52:29.648Z,184
2017-07-11T12:53:29.795Z,216
2017-07-11T12:54:29.834Z,216
2017-07-11T12:55:30.084Z,224
2017-07-11T12:56:29.721Z,268
2017-07-11T12:57:29.654Z,264
2017-07-11T12:58:28.978Z,280
2017-07-11T12:59:29.543Z,224
2017-07-11T13:00:29.471Z,216
2017-07-11T13:01:29.402Z,208
2017-07-11T13:02:29.364Z,204
2017-07-11T13:03:29.335Z,200
2017-07-11T13:04:28.912Z,204
2017-07-11T13:05:28.851Z,200
2017-07-11T13:06:28.502Z,200
2017-07-11T13:07:29.035Z,204
2017-07-11T13:08:28.696Z,204
2017-07-11T13:09:28.923Z,212
2017-07-11T13:10:28.856Z,268
2017-07-11T13:11:28.793Z,272
2017-07-11T13:12:28.735Z,244
2017-07-11T13:13:28.665Z,236
2017-07-11T13:14:28.605Z,232
2017-07-11T13:15:28.116Z,264
2017-07-11T13:16:28.501Z,272
2017-07-11T13:17:28.445Z,216
2017-07-11T13:18:28.363Z,204
2017-07-11T13:19:28.302Z,200
2017-07-11T13:20:27.929Z,196
2017-07-11T13:21:27.873Z,196
2017-07-11T13:22:28.009Z,200
2017-07-11T13:23:28.044Z,196
2017-07-11T13:24:27.990Z,196
2017-07-11T13:25:27.616Z,196
2017-07-11T13:26:27.249Z,196
2017-07-11T13:27:27.496Z,196
2017-07-11T13:28:27.743Z,196
2017-07-11T13:29:27.682Z,196
2017-07-11T13:30:27.314Z,192
2017-07-11T13:31:27.251Z,192
2017-07-11T13:32:27.193Z,192
2017-07-11T13:33:27.124Z,188
2017-07-11T13:34:27.064Z,188
2017-07-11T13:35:27.560Z,184
2017-07-11T13:36:26.637Z,184
2017-07-11T13:37:26.886Z,180
2017-07-11T13:38:26.818Z,180
2017-07-11T13:39:26.755Z,180
2017-07-11T13:40:27.003Z,180
2017-07-11T13:41:26.949Z,180
2017-07-11T13:42:26.882Z,180
2017-07-11T13:43:26.822Z,184
2017-07-11T13:44:27.011Z,184
2017-07-11T13:45:25.773Z,184
2017-07-11T13:46:25.716Z,184
2017-07-11T13:47:26.614Z,184
2017-07-11T13:48:25.587Z,184
2017-07-11T13:49:26.451Z,184
2017-07-11T13:50:26.247Z,180
2017-07-11T13:51:25.721Z,184
2017-07-11T13:52:25.650Z,180
2017-07-11T13:53:25.592Z,184
2017-07-11T13:54:25.838Z,184
2017-07-11T13:55:25.775Z,184
2017-07-11T13:56:25.714Z,184
2017-07-11T13:57:25.341Z,188
2017-07-11T13:58:25.899Z,188
2017-07-11T13:59:25.839Z,188
2017-07-11T14:00:25.493Z,184
2017-07-11T14:01:25.412Z,188
2017-07-11T14:02:25.349Z,192
2017-07-11T14:03:25.595Z,192
2017-07-11T14:04:25.531Z,192
2017-07-11T14:05:25.263Z,32
2017-07-11T14:06:25.101Z,32
2017-07-11T14:07:25.049Z,32
2017-07-11T14:08:25.282Z,32
2017-07-11T14:09:24.916Z,32
2017-07-11T14:10:25.187Z,32
2017-07-11T14:11:25.115Z,36
2017-07-11T14:12:24.427Z,40
2017-07-11T14:13:24.981Z,36